sensor_id;sensor_type;location;lat;lon;timestamp;pressure;altitude;pressure_sealevel;temperature;humidity
37170;BME280;23062;13.952;100.608;2023-12-20T00:02:13;1013.46;;;30.87;59.34
37170;BME280;23062;13.952;100.608;2023-12-20T00:06:52;1013.51;;;30.88;59.31
37170;BME280;23062;13.952;100.608;2023-12-20T00:11:36;1013.61;;;30.91;59.38
37170;BME280;23062;13.952;100.608;2023-12-20T00:16:14;1013.64;;;30.85;59.36
37170;BME280;23062;13.952;100.608;2023-12-20T00:20:58;1013.71;;;30.86;59.43
37170;BME280;23062;13.952;100.608;2023-12-20T00:25:45;1013.71;;;30.87;59.28
37170;BME280;23062;13.952;100.608;2023-12-20T00:30:23;1013.81;;;30.82;59.26
37170;BME280;23062;13.952;100.608;2023-12-20T00:35:08;1013.88;;;30.83;59.39
37170;BME280;23062;13.952;100.608;2023-12-20T00:39:52;1013.95;;;30.83;59.22
37170;BME280;23062;13.952;100.608;2023-12-20T00:44:37;1013.96;;;30.84;59.08
37170;BME280;23062;13.952;100.608;2023-12-20T00:49:22;1014.07;;;30.87;58.99
37170;BME280;23062;13.952;100.608;2023-12-20T00:54:05;1014.12;;;30.87;59.00
37170;BME280;23062;13.952;100.608;2023-12-20T00:58:47;1014.12;;;30.81;58.92
37170;BME280;23062;13.952;100.608;2023-12-20T01:03:32;1014.21;;;30.82;59.03
37170;BME280;23062;13.952;100.608;2023-12-20T01:08:16;1014.29;;;30.83;58.76
37170;BME280;23062;13.952;100.608;2023-12-20T01:13:02;1014.34;;;30.90;59.00
37170;BME280;23062;13.952;100.608;2023-12-20T01:17:46;1014.36;;;30.88;58.44
37170;BME280;23062;13.952;100.608;2023-12-20T01:22:30;1014.40;;;30.75;57.82
37170;BME280;23062;13.952;100.608;2023-12-20T01:27:14;1014.46;;;30.84;57.71
37170;BME280;23062;13.952;100.608;2023-12-20T01:41:40;1014.57;;;30.98;56.88
37170;BME280;23062;13.952;100.608;2023-12-20T01:46:23;1014.69;;;31.06;57.11
37170;BME280;23062;13.952;100.608;2023-12-20T01:51:08;1014.68;;;31.19;56.91
37170;BME280;23062;13.952;100.608;2023-12-20T01:55:54;1014.61;;;31.13;55.61
37170;BME280;23062;13.952;100.608;2023-12-20T02:00:39;1014.60;;;31.21;55.87
37170;BME280;23062;13.952;100.608;2023-12-20T02:05:27;1014.61;;;31.20;55.10
37170;BME280;23062;13.952;100.608;2023-12-20T02:10:14;1014.59;;;31.31;55.17
37170;BME280;23062;13.952;100.608;2023-12-20T02:14:53;1014.58;;;31.28;59.42
37170;BME280;23062;13.952;100.608;2023-12-20T02:19:31;1014.61;;;31.19;60.42
37170;BME280;23062;13.952;100.608;2023-12-20T02:24:14;1014.58;;;31.04;59.58
37170;BME280;23062;13.952;100.608;2023-12-20T02:29:00;1014.58;;;31.04;60.07
37170;BME280;23062;13.952;100.608;2023-12-20T02:33:38;1014.46;;;31.11;59.23
37170;BME280;23062;13.952;100.608;2023-12-20T02:38:23;1014.48;;;31.17;58.08
37170;BME280;23062;13.952;100.608;2023-12-20T02:43:08;1014.57;;;31.25;58.03
37170;BME280;23062;13.952;100.608;2023-12-20T02:47:50;1014.38;;;31.34;57.69
37170;BME280;23062;13.952;100.608;2023-12-20T02:52:39;1014.42;;;31.42;58.03
37170;BME280;23062;13.952;100.608;2023-12-20T03:02:17;1014.50;;;31.47;57.44
37170;BME280;23062;13.952;100.608;2023-12-20T03:06:57;1014.43;;;31.45;57.34
37170;BME280;23062;13.952;100.608;2023-12-20T03:11:35;1014.43;;;31.55;56.67
37170;BME280;23062;13.952;100.608;2023-12-20T03:16:22;1014.38;;;31.59;56.56
37170;BME280;23062;13.952;100.608;2023-12-20T03:21:08;1014.34;;;31.60;55.89
37170;BME280;23062;13.952;100.608;2023-12-20T03:25:49;1014.31;;;31.66;56.08
37170;BME280;23062;13.952;100.608;2023-12-20T03:30:26;1014.23;;;31.68;55.53
37170;BME280;23062;13.952;100.608;2023-12-20T03:35:10;1014.20;;;31.68;55.79
37170;BME280;23062;13.952;100.608;2023-12-20T03:39:47;1014.16;;;31.66;55.81
37170;BME280;23062;13.952;100.608;2023-12-20T03:44:32;1014.11;;;31.70;55.80
37170;BME280;23062;13.952;100.608;2023-12-20T03:49:13;1014.05;;;31.79;55.75
37170;BME280;23062;13.952;100.608;2023-12-20T03:53:50;1013.96;;;31.85;55.63
37170;BME280;23062;13.952;100.608;2023-12-20T03:58:28;1013.90;;;31.86;55.44
37170;BME280;23062;13.952;100.608;2023-12-20T04:03:13;1013.81;;;31.87;55.27
37170;BME280;23062;13.952;100.608;2023-12-20T04:08:13;1013.80;;;31.87;55.16
37170;BME280;23062;13.952;100.608;2023-12-20T04:17:43;1013.59;;;31.89;54.90
37170;BME280;23062;13.952;100.608;2023-12-20T04:22:30;1013.52;;;31.91;54.87
37170;BME280;23062;13.952;100.608;2023-12-20T04:27:10;1013.43;;;31.91;54.67
37170;BME280;23062;13.952;100.608;2023-12-20T04:31:55;1013.33;;;31.93;54.50
37170;BME280;23062;13.952;100.608;2023-12-20T04:36:40;1013.23;;;31.93;54.42
37170;BME280;23062;13.952;100.608;2023-12-20T04:41:24;1013.09;;;31.94;54.39
37170;BME280;23062;13.952;100.608;2023-12-20T04:46:03;1013.01;;;31.96;54.29
37170;BME280;23062;13.952;100.608;2023-12-20T04:50:41;1012.91;;;31.98;54.03
37170;BME280;23062;13.952;100.608;2023-12-20T04:55:27;1012.86;;;32.01;54.00
37170;BME280;23062;13.952;100.608;2023-12-20T05:00:12;1012.70;;;32.01;53.99
37170;BME280;23062;13.952;100.608;2023-12-20T05:04:59;1012.55;;;32.01;54.04
37170;BME280;23062;13.952;100.608;2023-12-20T05:09:43;1012.47;;;32.03;53.92
37170;BME280;23062;13.952;100.608;2023-12-20T05:14:28;1012.38;;;32.06;53.73
37170;BME280;23062;13.952;100.608;2023-12-20T05:19:13;1012.31;;;32.06;53.68
37170;BME280;23062;13.952;100.608;2023-12-20T05:23:55;1012.20;;;32.09;53.56
37170;BME280;23062;13.952;100.608;2023-12-20T05:28:32;1012.09;;;32.11;53.42
37170;BME280;23062;13.952;100.608;2023-12-20T05:33:12;1012.03;;;32.13;53.39
37170;BME280;23062;13.952;100.608;2023-12-20T05:37:50;1011.87;;;32.13;53.40
37170;BME280;23062;13.952;100.608;2023-12-20T05:42:27;1011.82;;;32.15;53.34
37170;BME280;23062;13.952;100.608;2023-12-20T05:47:12;1011.73;;;32.16;53.36
37170;BME280;23062;13.952;100.608;2023-12-20T05:51:56;1011.67;;;32.17;53.41
37170;BME280;23062;13.952;100.608;2023-12-20T05:56:42;1011.52;;;32.19;53.37
37170;BME280;23062;13.952;100.608;2023-12-20T06:01:19;1011.45;;;32.20;53.23
37170;BME280;23062;13.952;100.608;2023-12-20T06:05:58;1011.34;;;32.22;53.14
37170;BME280;23062;13.952;100.608;2023-12-20T06:10:42;1011.27;;;32.22;52.93
37170;BME280;23062;13.952;100.608;2023-12-20T06:15:24;1011.19;;;32.22;52.82
37170;BME280;23062;13.952;100.608;2023-12-20T06:20:09;1011.15;;;32.24;52.69
37170;BME280;23062;13.952;100.608;2023-12-20T06:24:54;1011.02;;;32.25;52.60
37170;BME280;23062;13.952;100.608;2023-12-20T06:29:38;1010.92;;;32.27;52.45
37170;BME280;23062;13.952;100.608;2023-12-20T06:34:17;1010.88;;;32.27;52.32
37170;BME280;23062;13.952;100.608;2023-12-20T06:39:02;1010.84;;;32.28;52.24
37170;BME280;23062;13.952;100.608;2023-12-20T06:43:40;1010.74;;;32.29;51.90
37170;BME280;23062;13.952;100.608;2023-12-20T06:48:24;1010.64;;;32.29;51.89
37170;BME280;23062;13.952;100.608;2023-12-20T06:53:09;1010.60;;;32.28;51.61
37170;BME280;23062;13.952;100.608;2023-12-20T06:57:54;1010.49;;;32.29;51.12
37170;BME280;23062;13.952;100.608;2023-12-20T07:02:31;1010.49;;;32.30;50.98
37170;BME280;23062;13.952;100.608;2023-12-20T07:07:12;1010.40;;;32.30;50.90
37170;BME280;23062;13.952;100.608;2023-12-20T07:11:50;1010.39;;;32.30;50.52
37170;BME280;23062;13.952;100.608;2023-12-20T07:16:36;1010.28;;;32.30;50.42
37170;BME280;23062;13.952;100.608;2023-12-20T07:21:21;1010.27;;;32.32;50.11
37170;BME280;23062;13.952;100.608;2023-12-20T07:26:00;1010.19;;;32.31;50.03
37170;BME280;23062;13.952;100.608;2023-12-20T07:30:45;1010.14;;;32.32;49.86
37170;BME280;23062;13.952;100.608;2023-12-20T07:35:28;1010.05;;;32.33;49.79
37170;BME280;23062;13.952;100.608;2023-12-20T07:40:07;1010.01;;;32.34;49.85
37170;BME280;23062;13.952;100.608;2023-12-20T07:44:53;1009.96;;;32.36;49.69
37170;BME280;23062;13.952;100.608;2023-12-20T07:49:37;1009.95;;;32.36;49.77
37170;BME280;23062;13.952;100.608;2023-12-20T07:54:22;1009.91;;;32.37;49.75
37170;BME280;23062;13.952;100.608;2023-12-20T07:59:05;1009.93;;;32.38;49.59
37170;BME280;23062;13.952;100.608;2023-12-20T08:03:51;1009.84;;;32.38;49.51
37170;BME280;23062;13.952;100.608;2023-12-20T08:08:35;1009.78;;;32.39;49.48
37170;BME280;23062;13.952;100.608;2023-12-20T08:13:19;1009.71;;;32.40;49.30
37170;BME280;23062;13.952;100.608;2023-12-20T08:17:59;1009.70;;;32.41;49.18
37170;BME280;23062;13.952;100.608;2023-12-20T08:22:44;1009.73;;;32.40;49.05
37170;BME280;23062;13.952;100.608;2023-12-20T08:27:29;1009.72;;;32.42;49.02
37170;BME280;23062;13.952;100.608;2023-12-20T08:32:07;1009.73;;;32.41;48.90
37170;BME280;23062;13.952;100.608;2023-12-20T08:36:55;1009.76;;;32.42;49.07
37170;BME280;23062;13.952;100.608;2023-12-20T08:41:40;1009.78;;;32.43;49.09
37170;BME280;23062;13.952;100.608;2023-12-20T08:46:24;1009.72;;;32.41;48.95
37170;BME280;23062;13.952;100.608;2023-12-20T08:51:09;1009.78;;;32.44;48.82
37170;BME280;23062;13.952;100.608;2023-12-20T08:55:48;1009.78;;;32.45;48.69
37170;BME280;23062;13.952;100.608;2023-12-20T09:00:24;1009.80;;;32.46;48.67
37170;BME280;23062;13.952;100.608;2023-12-20T09:05:09;1009.75;;;32.43;48.57
37170;BME280;23062;13.952;100.608;2023-12-20T09:09:48;1009.79;;;32.47;48.61
37170;BME280;23062;13.952;100.608;2023-12-20T09:14:33;1009.80;;;32.47;48.57
37170;BME280;23062;13.952;100.608;2023-12-20T09:19:19;1009.86;;;32.45;48.36
37170;BME280;23062;13.952;100.608;2023-12-20T09:23:57;1009.84;;;32.46;48.22
37170;BME280;23062;13.952;100.608;2023-12-20T09:28:40;1009.87;;;32.46;48.25
37170;BME280;23062;13.952;100.608;2023-12-20T09:33:26;1009.88;;;32.48;48.33
37170;BME280;23062;13.952;100.608;2023-12-20T09:38:10;1009.95;;;32.47;48.37
37170;BME280;23062;13.952;100.608;2023-12-20T09:43:01;1010.00;;;32.48;48.42
37170;BME280;23062;13.952;100.608;2023-12-20T09:47:39;1010.05;;;32.48;48.41
37170;BME280;23062;13.952;100.608;2023-12-20T09:52:24;1010.10;;;32.47;48.31
37170;BME280;23062;13.952;100.608;2023-12-20T09:57:00;1010.13;;;32.48;48.43
37170;BME280;23062;13.952;100.608;2023-12-20T10:01:39;1010.18;;;32.48;48.25
37170;BME280;23062;13.952;100.608;2023-12-20T10:06:25;1010.30;;;32.48;48.33
37170;BME280;23062;13.952;100.608;2023-12-20T10:11:08;1010.34;;;32.47;48.30
37170;BME280;23062;13.952;100.608;2023-12-20T10:15:52;1010.44;;;32.47;48.42
37170;BME280;23062;13.952;100.608;2023-12-20T10:20:37;1010.56;;;32.48;48.19
37170;BME280;23062;13.952;100.608;2023-12-20T10:25:22;1010.59;;;32.49;47.79
37170;BME280;23062;13.952;100.608;2023-12-20T10:30:05;1010.63;;;32.50;47.26
37170;BME280;23062;13.952;100.608;2023-12-20T10:34:47;1010.71;;;32.51;46.77
37170;BME280;23062;13.952;100.608;2023-12-20T10:39:25;1010.79;;;32.53;45.79
37170;BME280;23062;13.952;100.608;2023-12-20T10:44:10;1010.80;;;32.53;46.43
37170;BME280;23062;13.952;100.608;2023-12-20T10:48:49;1010.83;;;32.47;46.16
37170;BME280;23062;13.952;100.608;2023-12-20T10:53:29;1010.92;;;32.45;46.48
37170;BME280;23062;13.952;100.608;2023-12-20T10:58:13;1010.98;;;32.41;46.94
37170;BME280;23062;13.952;100.608;2023-12-20T11:03:04;1010.98;;;32.41;46.99
37170;BME280;23062;13.952;100.608;2023-12-20T11:07:50;1011.05;;;32.42;47.10
37170;BME280;23062;13.952;100.608;2023-12-20T11:12:42;1011.19;;;32.39;47.34
37170;BME280;23062;13.952;100.608;2023-12-20T11:17:25;1011.28;;;32.40;47.88
37170;BME280;23062;13.952;100.608;2023-12-20T11:22:10;1011.36;;;32.41;48.72
37170;BME280;23062;13.952;100.608;2023-12-20T11:26:56;1011.41;;;32.44;49.93
37170;BME280;23062;13.952;100.608;2023-12-20T11:31:39;1011.45;;;32.41;50.89
37170;BME280;23062;13.952;100.608;2023-12-20T11:36:20;1011.53;;;32.43;51.67
37170;BME280;23062;13.952;100.608;2023-12-20T11:40:59;1011.58;;;32.41;51.85
37170;BME280;23062;13.952;100.608;2023-12-20T11:45:50;1011.62;;;32.39;52.18
37170;BME280;23062;13.952;100.608;2023-12-20T11:50:28;1011.71;;;32.36;52.58
37170;BME280;23062;13.952;100.608;2023-12-20T11:55:13;1011.72;;;32.36;52.51
37170;BME280;23062;13.952;100.608;2023-12-20T11:59:50;1011.79;;;32.28;51.96
37170;BME280;23062;13.952;100.608;2023-12-20T12:04:27;1011.88;;;32.29;51.89
37170;BME280;23062;13.952;100.608;2023-12-20T12:09:04;1011.91;;;32.29;51.99
37170;BME280;23062;13.952;100.608;2023-12-20T12:13:48;1012.01;;;32.23;52.12
37170;BME280;23062;13.952;100.608;2023-12-20T12:18:32;1012.05;;;32.24;52.34
37170;BME280;23062;13.952;100.608;2023-12-20T12:23:14;1012.17;;;32.21;51.95
37170;BME280;23062;13.952;100.608;2023-12-20T12:27:52;1012.26;;;32.17;51.23
37170;BME280;23062;13.952;100.608;2023-12-20T12:32:37;1012.36;;;32.16;50.77
37170;BME280;23062;13.952;100.608;2023-12-20T12:37:22;1012.41;;;32.15;49.99
37170;BME280;23062;13.952;100.608;2023-12-20T12:42:04;1012.50;;;32.09;49.76
37170;BME280;23062;13.952;100.608;2023-12-20T12:46:48;1012.56;;;32.08;49.92
37170;BME280;23062;13.952;100.608;2023-12-20T12:51:36;1012.63;;;32.05;49.83
37170;BME280;23062;13.952;100.608;2023-12-20T12:56:22;1012.70;;;32.04;49.78
37170;BME280;23062;13.952;100.608;2023-12-20T13:01:08;1012.77;;;32.09;50.04
37170;BME280;23062;13.952;100.608;2023-12-20T13:05:52;1012.86;;;32.16;50.53
37170;BME280;23062;13.952;100.608;2023-12-20T13:10:35;1012.90;;;32.19;50.84
37170;BME280;23062;13.952;100.608;2023-12-20T13:15:20;1012.96;;;32.22;51.16
37170;BME280;23062;13.952;100.608;2023-12-20T13:20:04;1012.98;;;32.23;51.40
37170;BME280;23062;13.952;100.608;2023-12-20T13:24:50;1013.02;;;32.25;51.64
37170;BME280;23062;13.952;100.608;2023-12-20T13:29:35;1013.03;;;32.25;51.89
37170;BME280;23062;13.952;100.608;2023-12-20T13:34:12;1012.99;;;32.26;52.22
37170;BME280;23062;13.952;100.608;2023-12-20T13:38:57;1013.02;;;32.39;51.97
37170;BME280;23062;13.952;100.608;2023-12-20T13:43:35;1013.06;;;32.45;51.75
37170;BME280;23062;13.952;100.608;2023-12-20T13:48:20;1013.18;;;32.47;51.60
37170;BME280;23062;13.952;100.608;2023-12-20T13:53:05;1013.21;;;32.47;51.60
37170;BME280;23062;13.952;100.608;2023-12-20T13:57:48;1013.33;;;32.48;51.55
37170;BME280;23062;13.952;100.608;2023-12-20T14:02:25;1013.33;;;32.49;51.48
37170;BME280;23062;13.952;100.608;2023-12-20T14:07:11;1013.33;;;32.47;51.33
37170;BME280;23062;13.952;100.608;2023-12-20T14:11:53;1013.38;;;32.47;51.47
37170;BME280;23062;13.952;100.608;2023-12-20T14:16:38;1013.47;;;32.47;51.42
37170;BME280;23062;13.952;100.608;2023-12-20T14:21:16;1013.55;;;32.46;51.38
37170;BME280;23062;13.952;100.608;2023-12-20T14:26:02;1013.64;;;32.45;51.39
37170;BME280;23062;13.952;100.608;2023-12-20T14:35:56;1013.74;;;32.47;51.39
37170;BME280;23062;13.952;100.608;2023-12-20T14:40:38;1013.69;;;32.46;51.43
37170;BME280;23062;13.952;100.608;2023-12-20T14:45:25;1013.67;;;32.45;51.46
37170;BME280;23062;13.952;100.608;2023-12-20T14:50:11;1013.63;;;32.44;51.61
37170;BME280;23062;13.952;100.608;2023-12-20T14:54:57;1013.62;;;32.45;51.59
37170;BME280;23062;13.952;100.608;2023-12-20T14:59:36;1013.63;;;32.45;51.66
37170;BME280;23062;13.952;100.608;2023-12-20T15:04:21;1013.62;;;32.45;51.75
37170;BME280;23062;13.952;100.608;2023-12-20T15:09:06;1013.60;;;32.44;51.95
37170;BME280;23062;13.952;100.608;2023-12-20T15:13:47;1013.60;;;32.45;51.88
37170;BME280;23062;13.952;100.608;2023-12-20T15:18:38;1013.56;;;32.44;51.92
37170;BME280;23062;13.952;100.608;2023-12-20T15:23:29;1013.57;;;32.43;52.03
37170;BME280;23062;13.952;100.608;2023-12-20T15:28:14;1013.56;;;32.43;52.06
37170;BME280;23062;13.952;100.608;2023-12-20T15:32:59;1013.59;;;32.42;52.15
37170;BME280;23062;13.952;100.608;2023-12-20T15:37:45;1013.52;;;32.43;52.13
37170;BME280;23062;13.952;100.608;2023-12-20T15:42:22;1013.47;;;32.43;52.12
37170;BME280;23062;13.952;100.608;2023-12-20T15:46:59;1013.41;;;32.43;52.11
37170;BME280;23062;13.952;100.608;2023-12-20T15:51:44;1013.42;;;32.41;52.07
37170;BME280;23062;13.952;100.608;2023-12-20T15:56:22;1013.41;;;32.41;52.09
37170;BME280;23062;13.952;100.608;2023-12-20T16:01:01;1013.47;;;32.40;52.08
37170;BME280;23062;13.952;100.608;2023-12-20T16:05:38;1013.41;;;32.41;52.11
37170;BME280;23062;13.952;100.608;2023-12-20T16:10:23;1013.41;;;32.40;52.02
37170;BME280;23062;13.952;100.608;2023-12-20T16:14:59;1013.36;;;32.40;52.04
37170;BME280;23062;13.952;100.608;2023-12-20T16:19:41;1013.35;;;32.40;52.07
37170;BME280;23062;13.952;100.608;2023-12-20T16:24:19;1013.41;;;32.40;52.06
37170;BME280;23062;13.952;100.608;2023-12-20T16:29:03;1013.36;;;32.39;52.01
37170;BME280;23062;13.952;100.608;2023-12-20T16:33:43;1013.36;;;32.39;51.95
37170;BME280;23062;13.952;100.608;2023-12-20T16:38:21;1013.32;;;32.39;51.97
37170;BME280;23062;13.952;100.608;2023-12-20T16:42:59;1013.31;;;32.37;52.02
37170;BME280;23062;13.952;100.608;2023-12-20T16:47:36;1013.31;;;32.38;51.99
37170;BME280;23062;13.952;100.608;2023-12-20T16:52:13;1013.32;;;32.37;51.88
37170;BME280;23062;13.952;100.608;2023-12-20T16:56:59;1013.28;;;32.35;51.85
37170;BME280;23062;13.952;100.608;2023-12-20T17:01:44;1013.30;;;32.34;51.83
37170;BME280;23062;13.952;100.608;2023-12-20T17:06:26;1013.25;;;32.34;51.78
37170;BME280;23062;13.952;100.608;2023-12-20T17:11:06;1013.20;;;32.33;51.73
37170;BME280;23062;13.952;100.608;2023-12-20T17:15:50;1013.14;;;32.32;51.75
37170;BME280;23062;13.952;100.608;2023-12-20T17:20:28;1013.14;;;32.32;51.68
37170;BME280;23062;13.952;100.608;2023-12-20T17:25:05;1013.08;;;32.32;51.69
37170;BME280;23062;13.952;100.608;2023-12-20T17:29:44;1013.04;;;32.31;51.75
37170;BME280;23062;13.952;100.608;2023-12-20T17:34:28;1013.01;;;32.30;51.59
37170;BME280;23062;13.952;100.608;2023-12-20T17:39:05;1012.96;;;32.30;51.68
37170;BME280;23062;13.952;100.608;2023-12-20T17:43:45;1012.92;;;32.30;51.57
37170;BME280;23062;13.952;100.608;2023-12-20T17:48:31;1012.90;;;32.29;51.58
37170;BME280;23062;13.952;100.608;2023-12-20T17:53:07;1012.82;;;32.29;51.50
37170;BME280;23062;13.952;100.608;2023-12-20T17:57:50;1012.74;;;32.26;51.43
37170;BME280;23062;13.952;100.608;2023-12-20T18:02:33;1012.77;;;32.27;51.44
37170;BME280;23062;13.952;100.608;2023-12-20T18:07:19;1012.78;;;32.26;51.47
37170;BME280;23062;13.952;100.608;2023-12-20T18:12:04;1012.75;;;32.23;51.38
37170;BME280;23062;13.952;100.608;2023-12-20T18:16:49;1012.74;;;32.26;51.37
37170;BME280;23062;13.952;100.608;2023-12-20T18:21:35;1012.65;;;32.24;51.36
37170;BME280;23062;13.952;100.608;2023-12-20T18:26:20;1012.64;;;32.24;51.41
37170;BME280;23062;13.952;100.608;2023-12-20T18:30:59;1012.64;;;32.23;51.13
37170;BME280;23062;13.952;100.608;2023-12-20T18:35:46;1012.52;;;32.21;51.33
37170;BME280;23062;13.952;100.608;2023-12-20T18:40:31;1012.56;;;32.21;51.06
37170;BME280;23062;13.952;100.608;2023-12-20T18:45:15;1012.49;;;32.21;50.73
37170;BME280;23062;13.952;100.608;2023-12-20T18:49:57;1012.47;;;32.20;50.80
37170;BME280;23062;13.952;100.608;2023-12-20T18:54:40;1012.44;;;32.20;50.79
37170;BME280;23062;13.952;100.608;2023-12-20T18:59:26;1012.41;;;32.17;50.97
37170;BME280;23062;13.952;100.608;2023-12-20T19:04:11;1012.33;;;32.17;50.73
37170;BME280;23062;13.952;100.608;2023-12-20T19:08:54;1012.30;;;32.17;50.63
37170;BME280;23062;13.952;100.608;2023-12-20T19:13:33;1012.32;;;32.16;50.63
37170;BME280;23062;13.952;100.608;2023-12-20T19:18:12;1012.23;;;32.15;50.61
37170;BME280;23062;13.952;100.608;2023-12-20T19:22:56;1012.23;;;32.15;50.54
37170;BME280;23062;13.952;100.608;2023-12-20T19:27:40;1012.18;;;32.13;50.56
37170;BME280;23062;13.952;100.608;2023-12-20T19:32:24;1012.21;;;32.12;50.47
37170;BME280;23062;13.952;100.608;2023-12-20T19:37:01;1012.21;;;32.10;50.35
37170;BME280;23062;13.952;100.608;2023-12-20T19:41:46;1012.21;;;32.09;50.36
37170;BME280;23062;13.952;100.608;2023-12-20T19:46:33;1012.17;;;32.08;50.34
37170;BME280;23062;13.952;100.608;2023-12-20T19:51:18;1012.16;;;32.07;50.12
37170;BME280;23062;13.952;100.608;2023-12-20T19:56:04;1012.15;;;32.03;50.25
37170;BME280;23062;13.952;100.608;2023-12-20T20:00:52;1012.14;;;32.03;50.10
37170;BME280;23062;13.952;100.608;2023-12-20T20:05:34;1012.11;;;32.04;49.94
37170;BME280;23062;13.952;100.608;2023-12-20T20:10:18;1012.05;;;32.03;49.86
37170;BME280;23062;13.952;100.608;2023-12-20T20:14:55;1012.08;;;32.02;49.80
37170;BME280;23062;13.952;100.608;2023-12-20T20:19:40;1012.07;;;32.00;49.65
37170;BME280;23062;13.952;100.608;2023-12-20T20:24:25;1012.02;;;32.00;49.66
37170;BME280;23062;13.952;100.608;2023-12-20T20:29:04;1012.03;;;32.00;49.81
37170;BME280;23062;13.952;100.608;2023-12-20T20:33:50;1011.92;;;31.99;49.71
37170;BME280;23062;13.952;100.608;2023-12-20T20:38:28;1011.98;;;32.00;49.74
37170;BME280;23062;13.952;100.608;2023-12-20T20:43:13;1011.97;;;31.97;49.81
37170;BME280;23062;13.952;100.608;2023-12-20T20:47:56;1012.05;;;31.97;49.65
37170;BME280;23062;13.952;100.608;2023-12-20T20:52:40;1012.07;;;31.96;49.76
37170;BME280;23062;13.952;100.608;2023-12-20T20:57:17;1012.01;;;31.95;49.67
37170;BME280;23062;13.952;100.608;2023-12-20T21:02:03;1012.04;;;31.95;49.92
37170;BME280;23062;13.952;100.608;2023-12-20T21:06:48;1012.05;;;31.93;49.75
37170;BME280;23062;13.952;100.608;2023-12-20T21:11:31;1012.08;;;31.93;49.93
37170;BME280;23062;13.952;100.608;2023-12-20T21:16:15;1012.12;;;31.92;50.02
37170;BME280;23062;13.952;100.608;2023-12-20T21:20:59;1012.11;;;31.92;49.96
37170;BME280;23062;13.952;100.608;2023-12-20T21:25:39;1012.13;;;31.90;50.01
37170;BME280;23062;13.952;100.608;2023-12-20T21:30:24;1012.12;;;31.89;50.35
37170;BME280;23062;13.952;100.608;2023-12-20T21:35:06;1012.16;;;31.89;50.45
37170;BME280;23062;13.952;100.608;2023-12-20T21:39:47;1012.17;;;31.89;50.57
37170;BME280;23062;13.952;100.608;2023-12-20T21:44:32;1012.30;;;31.89;50.66
37170;BME280;23062;13.952;100.608;2023-12-20T21:49:09;1012.36;;;31.89;50.76
37170;BME280;23062;13.952;100.608;2023-12-20T21:53:52;1012.34;;;31.87;50.66
37170;BME280;23062;13.952;100.608;2023-12-20T21:58:36;1012.41;;;31.89;50.57
37170;BME280;23062;13.952;100.608;2023-12-20T22:03:22;1012.44;;;31.87;50.46
37170;BME280;23062;13.952;100.608;2023-12-20T22:08:02;1012.45;;;31.80;49.73
37170;BME280;23062;13.952;100.608;2023-12-20T22:12:47;1012.50;;;31.67;49.64
37170;BME280;23062;13.952;100.608;2023-12-20T22:17:26;1012.46;;;31.48;48.67
37170;BME280;23062;13.952;100.608;2023-12-20T22:22:12;1012.45;;;31.40;49.13
37170;BME280;23062;13.952;100.608;2023-12-20T22:26:56;1012.51;;;31.28;48.73
37170;BME280;23062;13.952;100.608;2023-12-20T22:31:41;1012.47;;;31.15;48.16
37170;BME280;23062;13.952;100.608;2023-12-20T22:36:25;1012.52;;;31.12;48.38
37170;BME280;23062;13.952;100.608;2023-12-20T22:41:10;1012.52;;;31.07;48.58
37170;BME280;23062;13.952;100.608;2023-12-20T22:45:54;1012.56;;;31.12;48.49
37170;BME280;23062;13.952;100.608;2023-12-20T22:50:32;1012.68;;;31.08;48.19
37170;BME280;23062;13.952;100.608;2023-12-20T22:55:18;1012.77;;;30.98;48.80
37170;BME280;23062;13.952;100.608;2023-12-20T23:00:02;1012.97;;;31.01;48.49
37170;BME280;23062;13.952;100.608;2023-12-20T23:04:47;1012.99;;;30.96;48.92
37170;BME280;23062;13.952;100.608;2023-12-20T23:09:29;1013.07;;;30.91;49.10
37170;BME280;23062;13.952;100.608;2023-12-20T23:14:13;1013.13;;;30.80;48.52
37170;BME280;23062;13.952;100.608;2023-12-20T23:18:49;1013.19;;;30.77;48.77
37170;BME280;23062;13.952;100.608;2023-12-20T23:23:33;1013.21;;;30.77;48.42
37170;BME280;23062;13.952;100.608;2023-12-20T23:28:17;1013.30;;;30.73;49.11
37170;BME280;23062;13.952;100.608;2023-12-20T23:32:55;1013.43;;;30.59;49.73
37170;BME280;23062;13.952;100.608;2023-12-20T23:37:39;1013.52;;;30.53;49.33
37170;BME280;23062;13.952;100.608;2023-12-20T23:42:24;1013.63;;;30.35;52.04
37170;BME280;23062;13.952;100.608;2023-12-20T23:47:03;1013.72;;;30.09;52.01
37170;BME280;23062;13.952;100.608;2023-12-20T23:51:41;1013.89;;;29.86;51.78
37170;BME280;23062;13.952;100.608;2023-12-20T23:56:25;1014.06;;;29.57;53.28
